This is the latest recevied weather packets stored in our database for station/object W0VI. If no packets are shown the sender has not sent any weather packets the latest 10 day(s).
| Time | Temp. | Humidity | Pressure | Rain* | Wind** | Luminosity | Snow |
|---|---|---|---|---|---|---|---|
| 1787933767 | 24.44° C | 54% | 1020.9 hPa | 0 mm | - | 576 W/m² | - |
| 1787933462 | 25° C | 56% | 1020.8 hPa | 0 mm | - | 652 W/m² | - |
| 1787933156 | 24.44° C | 57% | 1021.1 hPa | 0 mm | - | 637 W/m² | - |
| 1787932851 | 24.44° C | 57% | 1021 hPa | 0 mm | - | 629 W/m² | - |
| 1787932550 | 24.44° C | 57% | 1021 hPa | 0 mm | - | 624 W/m² | - |
| 1787932245 | 24.44° C | 57% | 1021.1 hPa | 0 mm | - | 629 W/m² | - |
| 1787931944 | 24.44° C | 59% | 1020.9 hPa | 0 mm | - | 615 W/m² | - |
| 1787931638 | 23.89° C | 58% | 1020.8 hPa | 0 mm | - | 604 W/m² | - |
| 1787931333 | 23.89° C | 59% | 1020.9 hPa | 0 mm | - | 551 W/m² | - |
| 1787931028 | 23.89° C | 61% | 1021 hPa | 0 mm | - | 527 W/m² | - |
| 1787930727 | 24.44° C | 60% | 1020.9 hPa | 0 mm | - | 559 W/m² | - |
| 1787930422 | 23.89° C | 61% | 1020.9 hPa | 0 mm | - | 554 W/m² | - |
| 1787930117 | 23.89° C | 60% | 1020.8 hPa | 0 mm | - | 507 W/m² | - |
| 1787929815 | 22.78° C | 64% | 1021 hPa | 0 mm | - | 402 W/m² | - |
| 1787929510 | 23.33° C | 62% | 1020.9 hPa | 0 mm | - | 456 W/m² | - |
| 1787929209 | 23.33° C | 62% | 1020.9 hPa | 0 mm | - | 445 W/m² | - |
| 1787928902 | 23.33° C | 62% | 1020.8 hPa | 0 mm | - | 416 W/m² | - |
| 1787928597 | 22.78° C | 65% | 1020.9 hPa | 0 mm | - | 409 W/m² | - |
| 1787928295 | 22.22° C | 66% | 1021.1 hPa | 0 mm | - | 394 W/m² | - |
| 1787927994 | 22.78° C | 63% | 1021 hPa | 0 mm | - | 349 W/m² | - |
| 1787927689 | 22.22° C | 65% | 1021 hPa | 0 mm | - | 349 W/m² | - |
| 1787927388 | 21.11° C | 69% | 1020.9 hPa | 0 mm | - | 340 W/m² | - |
| 1787927085 | 20.56° C | 70% | 1020.8 hPa | 0 mm | - | 315 W/m² | - |
| 1787926784 | 21.11° C | 67% | 1021 hPa | 0 mm | - | 313 W/m² | - |
| 1787926484 | 20.56° C | 70% | 1021.2 hPa | 0 mm | - | 280 W/m² | - |
* Rain latest hour (hover to see other rain measurements)
** Current wind speed in m/s (hover to see current wind gust speed)